createdAt,value
2017-09-25T00:02:15.172Z,18.50
2017-09-25T00:04:42.795Z,18.50
2017-09-25T00:07:10.413Z,18.50
2017-09-25T00:09:38.070Z,18.50
2017-09-25T00:12:06.461Z,18.50
2017-09-25T00:14:35.199Z,18.50
2017-09-25T00:17:02.821Z,18.50
2017-09-25T00:19:31.259Z,18.50
2017-09-25T00:21:58.879Z,18.50
2017-09-25T00:24:27.277Z,18.50
2017-09-25T00:26:54.749Z,18.50
2017-09-25T00:29:22.221Z,18.50
2017-09-25T00:31:49.982Z,18.50
2017-09-25T00:34:17.609Z,18.50
2017-09-25T00:36:46.059Z,18.50
2017-09-25T00:39:13.716Z,18.50
2017-09-25T00:41:41.374Z,18.50
2017-09-25T00:44:09.047Z,18.50
2017-09-25T00:46:36.661Z,18.50
2017-09-25T00:49:04.288Z,18.50
2017-09-25T00:51:32.708Z,18.50
2017-09-25T00:54:00.327Z,18.40
2017-09-25T00:56:28.002Z,18.40
2017-09-25T00:58:56.205Z,18.40
2017-09-25T01:01:29.451Z,18.40
2017-09-25T01:03:56.884Z,18.40
2017-09-25T01:06:28.051Z,18.40
2017-09-25T01:08:55.715Z,18.40
2017-09-25T01:11:23.372Z,18.40
2017-09-25T01:13:50.994Z,18.40
2017-09-25T01:16:18.642Z,18.40
2017-09-25T01:18:46.265Z,18.40
2017-09-25T01:21:13.930Z,18.40
2017-09-25T01:23:41.358Z,18.40
2017-09-25T01:26:08.795Z,18.40
2017-09-25T01:28:36.448Z,18.40
2017-09-25T01:31:04.064Z,18.40
2017-09-25T01:33:31.714Z,18.40
2017-09-25T01:35:59.340Z,18.40
2017-09-25T01:38:26.991Z,18.40
2017-09-25T01:40:55.420Z,18.40
2017-09-25T01:43:23.052Z,18.40
2017-09-25T01:45:50.683Z,18.40
2017-09-25T01:48:19.100Z,18.40
2017-09-25T01:50:46.754Z,18.40
2017-09-25T01:53:15.159Z,18.40
2017-09-25T01:55:42.924Z,18.40
2017-09-25T01:58:10.543Z,18.40
2017-09-25T02:00:38.923Z,18.40
2017-09-25T02:03:07.357Z,18.40
2017-09-25T02:05:34.980Z,18.40
2017-09-25T02:08:03.490Z,18.40
2017-09-25T02:10:31.932Z,18.40
2017-09-25T02:13:00.324Z,18.40
2017-09-25T02:15:28.896Z,18.30
2017-09-25T02:17:57.274Z,18.40
2017-09-25T02:20:25.699Z,18.40
2017-09-25T02:22:53.751Z,18.30
2017-09-25T02:25:21.420Z,18.40
2017-09-25T02:27:49.037Z,18.40
2017-09-25T02:30:18.199Z,18.30
2017-09-25T02:32:46.755Z,18.40
2017-09-25T02:35:14.392Z,18.40
2017-09-25T02:37:43.733Z,18.40
2017-09-25T02:40:12.147Z,18.40
2017-09-25T02:42:40.573Z,18.40
2017-09-25T02:45:08.219Z,18.40
2017-09-25T02:47:37.387Z,18.40
2017-09-25T02:50:05.940Z,18.40
2017-09-25T02:52:33.659Z,18.40
2017-09-25T02:55:02.856Z,18.40
2017-09-25T02:57:31.271Z,18.40
2017-09-25T02:59:59.669Z,18.30
2017-09-25T03:02:28.353Z,18.40
2017-09-25T03:04:55.971Z,18.40
2017-09-25T03:07:25.263Z,18.30
2017-09-25T03:09:53.855Z,18.30
2017-09-25T03:12:23.168Z,18.30
2017-09-25T03:14:51.587Z,18.30
2017-09-25T03:17:19.210Z,18.30
2017-09-25T03:19:48.420Z,18.30
2017-09-25T03:22:16.817Z,18.30
2017-09-25T03:24:44.444Z,18.30
2017-09-25T03:27:13.800Z,18.30
2017-09-25T03:29:41.417Z,18.30
2017-09-25T03:32:09.091Z,18.30
2017-09-25T03:34:36.707Z,18.30
2017-09-25T03:37:05.110Z,18.30
2017-09-25T03:39:33.536Z,18.30
2017-09-25T03:42:01.959Z,18.30
2017-09-25T03:44:29.635Z,18.30
2017-09-25T03:46:58.079Z,18.30
2017-09-25T03:49:25.703Z,18.30
2017-09-25T03:51:53.322Z,18.30
2017-09-25T03:54:20.984Z,18.30
2017-09-25T03:56:48.603Z,18.30
2017-09-25T03:59:16.218Z,18.30
2017-09-25T04:01:43.897Z,18.30
2017-09-25T04:04:12.279Z,18.30
2017-09-25T04:06:41.445Z,18.30
2017-09-25T04:09:09.091Z,18.30
2017-09-25T04:11:36.713Z,18.30
2017-09-25T04:14:04.191Z,18.30
2017-09-25T04:16:31.808Z,18.30
2017-09-25T04:18:59.429Z,18.30
2017-09-25T04:21:27.103Z,18.30
2017-09-25T04:23:54.726Z,18.30
2017-09-25T04:26:22.339Z,18.30
2017-09-25T04:28:50.801Z,18.30
2017-09-25T04:31:18.425Z,18.30
2017-09-25T04:33:46.948Z,18.30
2017-09-25T04:36:14.603Z,18.30
2017-09-25T04:38:43.175Z,18.20
2017-09-25T04:41:10.795Z,18.20
2017-09-25T04:43:38.418Z,18.20
2017-09-25T04:46:06.176Z,18.20
2017-09-25T04:48:33.795Z,18.20
2017-09-25T04:51:02.947Z,18.20
2017-09-25T04:53:30.598Z,18.20
2017-09-25T04:55:58.266Z,18.20
2017-09-25T04:58:25.883Z,18.20
2017-09-25T05:00:55.055Z,18.20
2017-09-25T05:03:23.621Z,18.20
2017-09-25T05:05:51.243Z,18.20
2017-09-25T05:08:19.767Z,18.20
2017-09-25T05:10:47.440Z,18.20
2017-09-25T05:13:15.954Z,18.20
2017-09-25T05:15:45.436Z,18.20
2017-09-25T05:18:13.814Z,18.20
2017-09-25T05:20:41.472Z,18.20
2017-09-25T05:23:08.905Z,18.10
2017-09-25T05:25:36.575Z,18.10
2017-09-25T05:28:04.191Z,18.20
2017-09-25T05:30:33.501Z,18.40
2017-09-25T05:33:01.923Z,18.40
2017-09-25T05:35:29.545Z,18.50
2017-09-25T05:37:57.212Z,18.50
2017-09-25T05:40:25.607Z,18.60
2017-09-25T05:42:53.223Z,18.60
2017-09-25T05:45:21.639Z,18.80
2017-09-25T05:47:50.166Z,18.70
2017-09-25T05:50:19.317Z,18.80
2017-09-25T05:52:47.722Z,18.80
2017-09-25T05:55:15.339Z,18.80
2017-09-25T05:57:44.555Z,18.80
2017-09-25T06:00:12.166Z,18.80
2017-09-25T06:02:39.788Z,18.80
2017-09-25T06:05:07.251Z,18.80
2017-09-25T06:07:35.807Z,18.80
2017-09-25T06:10:04.187Z,18.80
2017-09-25T06:12:32.610Z,18.80
2017-09-25T06:15:00.223Z,18.70
2017-09-25T06:17:28.635Z,18.80
2017-09-25T06:19:56.289Z,18.70
2017-09-25T06:22:23.902Z,18.80
2017-09-25T06:24:52.357Z,18.80
2017-09-25T06:27:19.972Z,18.80
2017-09-25T06:29:49.167Z,18.80
2017-09-25T06:32:17.595Z,18.80
2017-09-25T06:34:46.039Z,18.70
2017-09-25T06:37:14.458Z,18.80
2017-09-25T06:39:42.947Z,18.70
2017-09-25T06:42:10.563Z,18.70
2017-09-25T06:44:38.948Z,18.70
2017-09-25T06:47:07.367Z,18.70
2017-09-25T06:49:35.784Z,18.70
2017-09-25T06:52:03.451Z,18.70
2017-09-25T06:54:31.845Z,18.70
2017-09-25T06:57:00.227Z,18.70
2017-09-25T06:59:28.641Z,18.70
2017-09-25T07:01:56.260Z,18.70
2017-09-25T07:04:24.690Z,18.70
2017-09-25T07:06:52.306Z,18.60
2017-09-25T07:09:21.526Z,18.60
2017-09-25T07:11:49.176Z,18.60
2017-09-25T07:14:17.611Z,18.60
2017-09-25T07:16:46.131Z,18.60
2017-09-25T07:19:14.515Z,18.70
2017-09-25T07:21:43.730Z,18.60
2017-09-25T07:24:12.131Z,18.60
2017-09-25T07:26:39.802Z,18.60
2017-09-25T07:29:07.415Z,18.60
2017-09-25T07:31:35.806Z,18.60
2017-09-25T07:34:04.222Z,18.60
2017-09-25T07:36:31.838Z,18.60
2017-09-25T07:39:00.259Z,18.60
2017-09-25T07:41:27.920Z,18.60
2017-09-25T07:43:56.363Z,18.60
2017-09-25T07:46:25.687Z,18.60
2017-09-25T07:48:53.352Z,18.60
2017-09-25T07:51:20.967Z,18.60
2017-09-25T07:53:49.368Z,18.60
2017-09-25T07:56:17.799Z,18.60
2017-09-25T07:58:45.461Z,18.60
2017-09-25T08:01:13.079Z,18.60
2017-09-25T08:03:42.380Z,18.60
2017-09-25T08:06:10.838Z,18.60
2017-09-25T08:08:39.235Z,18.60
2017-09-25T08:11:06.855Z,18.60
2017-09-25T08:13:34.512Z,18.60
2017-09-25T08:16:02.175Z,18.60
2017-09-25T08:18:29.793Z,18.60
2017-09-25T08:20:58.194Z,18.60
2017-09-25T08:23:26.755Z,18.60
2017-09-25T08:25:54.959Z,18.60
2017-09-25T08:28:22.571Z,18.60
2017-09-25T08:30:50.233Z,18.60
2017-09-25T08:33:17.855Z,18.60
2017-09-25T08:35:45.515Z,18.60
2017-09-25T08:38:13.139Z,18.60
2017-09-25T08:40:41.576Z,18.60
2017-09-25T08:43:09.187Z,18.50
2017-09-25T08:45:38.488Z,18.50
2017-09-25T08:48:06.917Z,18.50
2017-09-25T08:50:35.326Z,18.50
2017-09-25T08:53:02.954Z,18.50
2017-09-25T08:55:31.415Z,18.50
2017-09-25T08:57:59.028Z,18.50
2017-09-25T09:00:27.431Z,18.50
2017-09-25T09:02:55.867Z,18.50
2017-09-25T09:05:24.267Z,18.50
2017-09-25T09:07:51.936Z,18.50
2017-09-25T09:10:21.453Z,18.50
2017-09-25T09:12:49.855Z,18.50
2017-09-25T09:15:18.284Z,18.50
2017-09-25T09:17:46.816Z,18.50
2017-09-25T09:20:16.168Z,18.50
2017-09-25T09:22:44.629Z,18.40
2017-09-25T09:25:13.181Z,18.50
2017-09-25T09:27:41.562Z,18.40
2017-09-25T09:30:10.792Z,18.40
2017-09-25T09:32:38.408Z,18.40
2017-09-25T09:35:06.810Z,18.40
2017-09-25T09:37:36.003Z,18.40
2017-09-25T09:40:05.336Z,18.40
2017-09-25T09:42:33.923Z,18.40
2017-09-25T09:45:02.444Z,18.40
2017-09-25T09:47:30.876Z,18.40
2017-09-25T09:49:58.498Z,18.40
2017-09-25T09:52:26.894Z,18.40
2017-09-25T09:54:56.229Z,18.40
2017-09-25T09:57:23.852Z,18.30
2017-09-25T09:59:52.420Z,18.40
2017-09-25T10:02:20.039Z,18.40
2017-09-25T10:04:48.384Z,18.40
2017-09-25T10:07:16.823Z,18.40
2017-09-25T10:09:44.677Z,18.40
2017-09-25T10:12:12.300Z,18.40
2017-09-25T10:14:41.339Z,18.40
2017-09-25T10:17:08.958Z,18.30
2017-09-25T10:19:37.339Z,18.30
2017-09-25T10:22:05.771Z,18.30
2017-09-25T10:24:33.392Z,18.30
2017-09-25T10:27:01.007Z,18.30
2017-09-25T10:29:28.667Z,18.30
2017-09-25T10:31:57.185Z,18.30
2017-09-25T10:34:25.616Z,18.30
2017-09-25T10:36:54.045Z,18.30
2017-09-25T10:39:22.433Z,18.30
2017-09-25T10:41:50.863Z,18.30
2017-09-25T10:44:18.480Z,18.30
2017-09-25T10:46:47.660Z,18.30
2017-09-25T10:49:15.317Z,18.30
2017-09-25T10:51:43.877Z,18.30
2017-09-25T10:54:11.527Z,18.30
2017-09-25T10:56:40.088Z,18.30
2017-09-25T10:59:07.704Z,18.30
2017-09-25T11:01:36.232Z,18.30
2017-09-25T11:04:03.884Z,18.30
2017-09-25T11:06:32.294Z,18.30
2017-09-25T11:08:59.947Z,18.30
2017-09-25T11:11:28.515Z,18.30
2017-09-25T11:13:57.130Z,18.30
2017-09-25T11:16:24.751Z,18.30
2017-09-25T11:18:54.039Z,18.30
2017-09-25T11:21:22.588Z,18.30
2017-09-25T11:23:50.248Z,18.30
2017-09-25T11:26:18.851Z,18.30
2017-09-25T11:28:47.367Z,18.30
2017-09-25T11:31:16.545Z,18.30
2017-09-25T11:33:44.195Z,18.30
2017-09-25T11:36:12.380Z,18.30
2017-09-25T11:38:40.001Z,18.30
2017-09-25T11:41:08.456Z,18.30
2017-09-25T11:43:36.869Z,18.30
2017-09-25T11:46:05.428Z,18.30
2017-09-25T11:48:33.832Z,18.30
2017-09-25T11:51:01.458Z,18.30
2017-09-25T11:53:30.788Z,18.30
2017-09-25T11:55:59.212Z,18.20
2017-09-25T11:58:26.830Z,18.30
2017-09-25T12:00:54.492Z,18.30
2017-09-25T12:03:22.120Z,18.30
2017-09-25T12:05:51.416Z,18.30
2017-09-25T12:08:19.847Z,18.30
2017-09-25T12:10:48.376Z,18.30
2017-09-25T12:13:16.039Z,18.30
2017-09-25T12:15:45.221Z,18.20
2017-09-25T12:18:12.840Z,18.20
2017-09-25T12:20:40.507Z,18.20
2017-09-25T12:23:08.129Z,18.20
2017-09-25T12:25:36.552Z,18.20
2017-09-25T12:28:04.435Z,18.20
2017-09-25T12:30:32.053Z,18.20
2017-09-25T12:33:00.495Z,18.20
2017-09-25T12:35:28.137Z,18.20
2017-09-25T12:37:55.756Z,18.20
2017-09-25T12:40:24.178Z,18.20
2017-09-25T12:42:51.831Z,18.20
2017-09-25T12:45:20.521Z,18.20
2017-09-25T12:47:49.073Z,18.20
2017-09-25T12:50:19.334Z,18.20
2017-09-25T12:52:47.908Z,18.20
2017-09-25T12:55:15.522Z,18.20
2017-09-25T12:57:44.071Z,18.20
2017-09-25T13:00:11.693Z,18.20
2017-09-25T13:02:39.368Z,18.20
2017-09-25T13:05:07.888Z,18.20
2017-09-25T13:07:37.180Z,18.20
2017-09-25T13:10:06.384Z,18.20
2017-09-25T13:12:35.743Z,18.20
2017-09-25T13:15:05.020Z,18.20
2017-09-25T13:17:32.640Z,18.20
2017-09-25T13:20:01.107Z,18.20
2017-09-25T13:22:29.537Z,18.20
2017-09-25T13:24:58.047Z,18.20
2017-09-25T13:27:26.461Z,18.20
2017-09-25T13:29:54.084Z,18.20
2017-09-25T13:32:23.269Z,18.20
2017-09-25T13:34:50.936Z,18.20
2017-09-25T13:37:20.116Z,18.20
2017-09-25T13:39:48.643Z,18.20
2017-09-25T13:42:17.095Z,18.20
2017-09-25T13:44:44.725Z,18.20
2017-09-25T13:47:13.339Z,18.20
2017-09-25T13:49:42.872Z,18.20
2017-09-25T13:52:11.259Z,18.20
2017-09-25T13:54:39.831Z,18.20
2017-09-25T13:57:08.214Z,18.20
2017-09-25T14:04:43.461Z,18.10
2017-09-25T14:07:11.922Z,18.20
2017-09-25T14:09:40.341Z,18.30
2017-09-25T14:12:09.523Z,18.50
2017-09-25T14:14:37.171Z,18.40
2017-09-25T14:17:05.736Z,18.50
2017-09-25T14:19:33.354Z,18.60
2017-09-25T14:22:02.653Z,18.70
2017-09-25T14:24:31.855Z,18.70
2017-09-25T14:27:00.793Z,18.70
2017-09-25T14:29:28.408Z,18.70
2017-09-25T14:31:57.600Z,18.80
2017-09-25T14:34:26.027Z,18.80
2017-09-25T14:36:54.422Z,18.70
2017-09-25T14:39:22.035Z,18.80
2017-09-25T14:41:51.249Z,18.80
2017-09-25T14:44:19.757Z,18.70
2017-09-25T14:46:47.379Z,18.80
2017-09-25T14:49:16.744Z,18.80
2017-09-25T14:51:45.144Z,18.70
2017-09-25T14:54:13.661Z,18.70
2017-09-25T14:56:41.317Z,18.80
2017-09-25T14:59:08.975Z,18.80
2017-09-25T15:01:37.759Z,18.80
2017-09-25T15:04:06.019Z,18.70
2017-09-25T15:06:34.016Z,18.70
2017-09-25T15:09:03.219Z,18.80
2017-09-25T15:11:30.839Z,18.70
2017-09-25T15:13:59.421Z,18.70
2017-09-25T15:16:27.818Z,18.90
2017-09-25T15:18:56.331Z,18.80
2017-09-25T15:21:23.983Z,18.80
2017-09-25T15:23:52.711Z,18.80
2017-09-25T15:26:20.370Z,18.80
2017-09-25T15:28:48.043Z,18.80
2017-09-25T15:31:15.709Z,18.80
2017-09-25T15:33:43.332Z,18.80
2017-09-25T15:36:11.724Z,18.80
2017-09-25T15:38:39.397Z,18.80
2017-09-25T15:41:07.023Z,18.80
2017-09-25T15:43:35.419Z,18.80
2017-09-25T15:46:04.012Z,18.80
2017-09-25T15:48:32.578Z,18.90
2017-09-25T15:51:01.914Z,18.90
2017-09-25T15:53:30.320Z,18.90
2017-09-25T15:55:58.861Z,18.90
2017-09-25T15:58:26.516Z,18.80
2017-09-25T16:00:54.917Z,18.80
2017-09-25T16:03:22.588Z,18.80
2017-09-25T16:05:50.203Z,18.80
2017-09-25T16:08:18.586Z,18.80
2017-09-25T16:10:47.908Z,18.80
2017-09-25T16:13:16.424Z,18.80
2017-09-25T16:15:44.096Z,18.80
2017-09-25T16:18:12.480Z,18.80
2017-09-25T16:20:40.107Z,18.80
2017-09-25T16:23:08.495Z,18.80
2017-09-25T16:25:36.558Z,18.80
2017-09-25T16:28:06.708Z,18.80
2017-09-25T16:30:35.118Z,18.80
2017-09-25T16:33:03.513Z,18.80
2017-09-25T16:35:31.933Z,18.80
2017-09-25T16:37:59.599Z,18.80
2017-09-25T16:40:27.215Z,18.80
2017-09-25T16:42:56.382Z,18.90
2017-09-25T16:45:24.041Z,18.80
2017-09-25T16:47:52.460Z,19.00
2017-09-25T16:50:21.784Z,19.00
2017-09-25T16:52:50.330Z,19.00
2017-09-25T16:55:18.587Z,19.00
2017-09-25T16:57:48.503Z,19.00
2017-09-25T17:00:16.799Z,19.00
2017-09-25T17:02:45.237Z,19.00
2017-09-25T17:05:13.140Z,18.90
2017-09-25T17:07:40.766Z,19.00
2017-09-25T17:10:08.465Z,19.00
2017-09-25T17:12:36.115Z,19.00
2017-09-25T17:15:03.776Z,19.00
2017-09-25T17:17:31.465Z,18.90
2017-09-25T17:19:59.956Z,18.90
2017-09-25T17:22:28.391Z,18.90
2017-09-25T17:24:56.066Z,18.90
2017-09-25T17:27:23.758Z,19.00
2017-09-25T17:29:52.147Z,18.90
2017-09-25T17:32:20.540Z,18.90
2017-09-25T17:34:48.186Z,18.90
2017-09-25T17:37:16.603Z,19.00
2017-09-25T17:39:44.274Z,19.00
2017-09-25T17:42:11.891Z,19.00
2017-09-25T17:44:41.610Z,18.90
2017-09-25T17:47:10.938Z,18.90
2017-09-25T17:49:38.556Z,18.90
2017-09-25T17:52:06.179Z,19.00
2017-09-25T17:54:33.835Z,18.90
2017-09-25T17:57:01.447Z,18.90
2017-09-25T17:59:29.100Z,18.90
2017-09-25T18:01:56.732Z,18.90
2017-09-25T18:04:24.403Z,19.00
2017-09-25T18:06:52.023Z,18.90
2017-09-25T18:09:19.931Z,18.90
2017-09-25T18:11:47.569Z,18.90
2017-09-25T18:14:15.218Z,18.90
2017-09-25T18:16:42.886Z,19.00
2017-09-25T18:19:10.503Z,19.00
2017-09-25T18:21:38.133Z,19.00
2017-09-25T18:24:05.795Z,19.10
2017-09-25T18:26:33.415Z,19.10
2017-09-25T18:29:01.800Z,19.10
2017-09-25T18:31:30.227Z,19.10
2017-09-25T18:33:57.891Z,19.10
2017-09-25T18:36:26.411Z,19.10
2017-09-25T18:38:55.690Z,19.10
2017-09-25T18:41:24.245Z,19.10
2017-09-25T18:43:51.874Z,19.10
2017-09-25T18:46:20.295Z,19.10
2017-09-25T18:48:47.915Z,19.00
2017-09-25T18:51:16.363Z,19.10
2017-09-25T18:53:43.994Z,19.10
2017-09-25T18:56:12.404Z,19.10
2017-09-25T18:58:40.051Z,19.10
2017-09-25T19:01:07.705Z,19.00
2017-09-25T19:03:35.367Z,19.00
2017-09-25T19:06:02.992Z,19.00
2017-09-25T19:08:31.447Z,19.00
2017-09-25T19:10:59.120Z,19.00
2017-09-25T19:13:28.403Z,19.00
2017-09-25T19:15:56.028Z,19.00
2017-09-25T19:18:23.694Z,19.00
2017-09-25T19:20:51.316Z,19.00
2017-09-25T19:23:20.612Z,19.00
2017-09-25T19:25:49.156Z,19.00
2017-09-25T19:28:23.390Z,19.00
2017-09-25T19:36:59.316Z,19.00
2017-09-25T19:39:27.231Z,19.00
2017-09-25T19:41:54.404Z,19.00
2017-09-25T19:44:21.594Z,19.00
2017-09-25T19:46:49.548Z,19.00
2017-09-25T19:49:18.935Z,19.00
2017-09-25T19:51:46.769Z,19.00
2017-09-25T19:54:13.936Z,19.00
2017-09-25T19:56:44.654Z,19.00
2017-09-25T19:59:12.577Z,19.00
2017-09-25T20:01:40.533Z,19.00
2017-09-25T20:04:08.521Z,19.00
2017-09-25T20:06:37.215Z,19.10
2017-09-25T20:09:05.139Z,19.20
2017-09-25T20:11:37.023Z,19.20
2017-09-25T20:14:04.215Z,19.20
2017-09-25T20:16:31.363Z,19.20
2017-09-25T20:18:59.403Z,19.10
2017-09-25T20:21:27.366Z,19.10
2017-09-25T20:23:54.519Z,19.10
2017-09-25T20:26:22.699Z,19.20
2017-09-25T20:28:50.631Z,19.10
2017-09-25T20:31:18.611Z,19.10
2017-09-25T20:33:46.715Z,19.10
2017-09-25T20:36:14.767Z,19.10
2017-09-25T20:38:41.918Z,19.10
2017-09-25T20:41:24.000Z,19.10
2017-09-25T20:43:53.741Z,19.10
2017-09-25T20:46:20.888Z,19.10
2017-09-25T20:48:48.064Z,19.10
2017-09-25T20:51:16.019Z,19.00
2017-09-25T20:53:43.206Z,19.00
2017-09-25T20:56:11.154Z,19.10
2017-09-25T20:58:39.071Z,19.10
2017-09-25T21:01:06.248Z,19.10
2017-09-25T21:03:33.394Z,19.00
2017-09-25T21:06:01.468Z,19.00
2017-09-25T21:08:28.648Z,19.10
2017-09-25T21:10:56.595Z,19.10
2017-09-25T21:13:23.771Z,19.10
2017-09-25T21:15:51.681Z,19.00
2017-09-25T21:18:18.876Z,19.00
2017-09-25T21:20:46.022Z,19.00
2017-09-25T21:23:13.958Z,19.00
2017-09-25T21:25:41.299Z,19.00
2017-09-25T21:28:08.443Z,19.10
2017-09-25T21:30:35.588Z,19.00
2017-09-25T21:33:02.764Z,19.00
2017-09-25T21:35:29.918Z,19.00
2017-09-25T21:37:57.103Z,19.00
2017-09-25T21:40:24.250Z,19.00
2017-09-25T21:42:51.523Z,19.00
2017-09-25T21:45:19.487Z,19.00
2017-09-25T21:47:46.635Z,19.00
2017-09-25T21:50:14.640Z,19.00
2017-09-25T21:52:42.791Z,19.00
2017-09-25T21:55:10.842Z,19.00
2017-09-25T21:57:38.032Z,19.00
2017-09-25T22:00:05.946Z,19.00
2017-09-25T22:02:33.132Z,19.00
2017-09-25T22:05:02.000Z,18.90
2017-09-25T22:07:29.152Z,18.90
2017-09-25T22:09:56.306Z,19.00
2017-09-25T22:12:23.815Z,19.00
2017-09-25T22:14:51.001Z,19.00
2017-09-25T22:17:18.152Z,19.10
2017-09-25T22:19:45.352Z,19.20
2017-09-25T22:22:13.271Z,19.20
2017-09-25T22:24:42.092Z,19.20
2017-09-25T22:27:10.208Z,19.20
2017-09-25T22:29:37.367Z,19.20
2017-09-25T22:32:04.561Z,19.20
2017-09-25T22:34:32.496Z,19.20
2017-09-25T22:36:59.647Z,19.20
2017-09-25T22:39:27.116Z,19.20
2017-09-25T22:41:54.307Z,19.20
2017-09-25T22:44:22.438Z,19.10
2017-09-25T22:46:49.587Z,19.10
2017-09-25T22:49:16.767Z,19.10
2017-09-25T22:51:43.952Z,19.10
2017-09-25T22:54:11.864Z,19.10
2017-09-25T22:56:39.048Z,19.10
2017-09-25T22:59:06.234Z,19.10
2017-09-25T23:01:34.295Z,19.10
2017-09-25T23:04:17.873Z,19.10
2017-09-25T23:06:46.035Z,19.10
2017-09-25T23:09:30.790Z,19.10
2017-09-25T23:11:57.943Z,19.10
2017-09-25T23:14:26.019Z,19.10
2017-09-25T23:16:54.116Z,19.00
2017-09-25T23:19:21.264Z,19.00
2017-09-25T23:21:49.359Z,19.00
2017-09-25T23:24:16.544Z,19.00
2017-09-25T23:26:45.488Z,19.10
2017-09-25T23:29:13.562Z,19.00
2017-09-25T23:31:53.543Z,19.10
2017-09-25T23:34:21.434Z,19.10
2017-09-25T23:36:49.379Z,19.00
2017-09-25T23:39:17.462Z,19.00
2017-09-25T23:41:46.319Z,19.00
2017-09-25T23:44:14.374Z,19.00
2017-09-25T23:46:42.339Z,19.00
2017-09-25T23:49:09.527Z,19.00
2017-09-25T23:51:36.667Z,19.00
2017-09-25T23:54:04.575Z,19.00
2017-09-25T23:56:33.450Z,19.00
2017-09-25T23:59:00.591Z,19.00
